sensor_id;sensor_type;location;lat;lon;timestamp;pressure;altitude;pressure_sealevel;temperature;humidity
19831;BME280;10076;52.008;4.708;2024-02-26T00:01:36;99945.13;;;9.20;100.00
19831;BME280;10076;52.008;4.708;2024-02-26T00:04:01;99942.97;;;9.14;100.00
19831;BME280;10076;52.008;4.708;2024-02-26T00:06:28;99941.28;;;9.13;100.00
19831;BME280;10076;52.008;4.708;2024-02-26T00:08:53;99945.47;;;9.15;100.00
19831;BME280;10076;52.008;4.708;2024-02-26T00:11:18;99946.69;;;9.11;100.00
19831;BME280;10076;52.008;4.708;2024-02-26T00:13:43;99948.38;;;9.12;100.00
19831;BME280;10076;52.008;4.708;2024-02-26T00:16:09;99947.28;;;9.15;100.00
19831;BME280;10076;52.008;4.708;2024-02-26T00:18:34;99958.88;;;9.34;100.00
19831;BME280;10076;52.008;4.708;2024-02-26T00:20:59;99946.88;;;9.30;100.00
19831;BME280;10076;52.008;4.708;2024-02-26T00:23:25;99952.44;;;9.16;100.00
19831;BME280;10076;52.008;4.708;2024-02-26T00:25:52;99952.75;;;9.34;100.00
19831;BME280;10076;52.008;4.708;2024-02-26T00:28:17;99952.44;;;9.05;100.00
19831;BME280;10076;52.008;4.708;2024-02-26T00:30:45;99954.72;;;9.21;100.00
19831;BME280;10076;52.008;4.708;2024-02-26T00:33:10;99960.94;;;8.98;100.00
19831;BME280;10076;52.008;4.708;2024-02-26T00:35:35;99962.22;;;9.14;100.00
19831;BME280;10076;52.008;4.708;2024-02-26T00:38:00;99960.53;;;9.24;100.00
19831;BME280;10076;52.008;4.708;2024-02-26T00:40:27;99959.97;;;9.21;100.00
19831;BME280;10076;52.008;4.708;2024-02-26T00:42:52;99962.22;;;9.14;100.00
19831;BME280;10076;52.008;4.708;2024-02-26T00:45:17;99963.44;;;9.21;100.00
19831;BME280;10076;52.008;4.708;2024-02-26T00:47:43;99951.69;;;9.25;100.00
19831;BME280;10076;52.008;4.708;2024-02-26T00:50:10;99948.56;;;9.31;100.00
19831;BME280;10076;52.008;4.708;2024-02-26T00:52:36;99947.88;;;9.18;100.00
19831;BME280;10076;52.008;4.708;2024-02-26T00:55:02;99951.81;;;9.24;100.00
19831;BME280;10076;52.008;4.708;2024-02-26T00:57:27;99945.25;;;9.29;100.00
19831;BME280;10076;52.008;4.708;2024-02-26T00:59:53;99951.47;;;9.28;100.00
19831;BME280;10076;52.008;4.708;2024-02-26T01:02:20;99951.69;;;9.14;100.00
19831;BME280;10076;52.008;4.708;2024-02-26T01:04:45;99951.22;;;9.09;100.00
19831;BME280;10076;52.008;4.708;2024-02-26T01:07:10;99946.31;;;9.16;100.00
19831;BME280;10076;52.008;4.708;2024-02-26T01:09:36;99952.44;;;9.16;100.00
19831;BME280;10076;52.008;4.708;2024-02-26T01:12:01;99951.09;;;9.11;100.00
19831;BME280;10076;52.008;4.708;2024-02-26T01:14:27;99953.84;;;9.20;100.00
19831;BME280;10076;52.008;4.708;2024-02-26T01:16:53;99956.47;;;9.20;100.00
19831;BME280;10076;52.008;4.708;2024-02-26T01:19:18;99956.00;;;9.26;100.00
19831;BME280;10076;52.008;4.708;2024-02-26T01:21:44;99953.63;;;9.12;100.00
19831;BME280;10076;52.008;4.708;2024-02-26T01:24:09;99965.59;;;9.16;100.00
19831;BME280;10076;52.008;4.708;2024-02-26T01:26:34;99956.00;;;9.26;100.00
19831;BME280;10076;52.008;4.708;2024-02-26T01:29:00;99952.53;;;9.37;100.00
19831;BME280;10076;52.008;4.708;2024-02-26T01:31:25;99952.16;;;9.19;100.00
19831;BME280;10076;52.008;4.708;2024-02-26T01:33:51;99944.19;;;9.21;100.00
19831;BME280;10076;52.008;4.708;2024-02-26T01:36:16;99948.94;;;9.16;100.00
19831;BME280;10076;52.008;4.708;2024-02-26T01:38:41;99940.94;;;9.17;100.00
19831;BME280;10076;52.008;4.708;2024-02-26T01:41:06;99945.72;;;9.34;100.00
19831;BME280;10076;52.008;4.708;2024-02-26T01:43:32;99950.63;;;9.17;100.00
19831;BME280;10076;52.008;4.708;2024-02-26T01:45:58;99949.41;;;9.10;100.00
19831;BME280;10076;52.008;4.708;2024-02-26T01:48:23;99949.53;;;9.08;100.00
19831;BME280;10076;52.008;4.708;2024-02-26T01:50:49;99947.66;;;9.10;100.00
19831;BME280;10076;52.008;4.708;2024-02-26T01:53:15;99956.28;;;9.12;100.00
19831;BME280;10076;52.008;4.708;2024-02-26T01:55:41;99957.34;;;9.21;100.00
19831;BME280;10076;52.008;4.708;2024-02-26T01:58:07;99966.41;;;9.28;100.00
19831;BME280;10076;52.008;4.708;2024-02-26T02:00:32;99972.88;;;9.35;100.00
19831;BME280;10076;52.008;4.708;2024-02-26T02:02:57;99981.53;;;9.26;100.00
19831;BME280;10076;52.008;4.708;2024-02-26T02:05:23;99984.25;;;9.13;100.00
19831;BME280;10076;52.008;4.708;2024-02-26T02:07:49;99981.16;;;9.19;100.00
19831;BME280;10076;52.008;4.708;2024-02-26T02:10:16;99987.59;;;9.37;100.00
19831;BME280;10076;52.008;4.708;2024-02-26T02:12:43;99990.38;;;9.25;100.00
19831;BME280;10076;52.008;4.708;2024-02-26T02:15:08;99981.84;;;9.43;100.00
19831;BME280;10076;52.008;4.708;2024-02-26T02:17:34;99984.84;;;9.39;100.00
19831;BME280;10076;52.008;4.708;2024-02-26T02:19:59;99987.41;;;9.18;100.00
19831;BME280;10076;52.008;4.708;2024-02-26T02:22:24;99990.72;;;9.09;100.00
19831;BME280;10076;52.008;4.708;2024-02-26T02:24:52;99987.97;;;9.11;100.00
19831;BME280;10076;52.008;4.708;2024-02-26T02:27:18;99986.53;;;9.29;100.00
19831;BME280;10076;52.008;4.708;2024-02-26T02:29:44;99984.28;;;9.35;100.00
19831;BME280;10076;52.008;4.708;2024-02-26T02:32:09;99991.44;;;9.33;100.00
19831;BME280;10076;52.008;4.708;2024-02-26T02:34:35;99994.31;;;9.30;100.00
19831;BME280;10076;52.008;4.708;2024-02-26T02:37:00;99995.75;;;9.34;100.00
19831;BME280;10076;52.008;4.708;2024-02-26T02:39:32;99993.34;;;9.42;100.00
19831;BME280;10076;52.008;4.708;2024-02-26T02:41:58;100004.63;;;9.33;100.00
19831;BME280;10076;52.008;4.708;2024-02-26T02:44:24;100006.03;;;9.37;100.00
19831;BME280;10076;52.008;4.708;2024-02-26T02:46:49;100023.31;;;9.41;100.00
19831;BME280;10076;52.008;4.708;2024-02-26T02:49:15;100018.75;;;9.32;100.00
19831;BME280;10076;52.008;4.708;2024-02-26T02:51:41;100024.34;;;9.39;100.00
19831;BME280;10076;52.008;4.708;2024-02-26T02:54:07;100030.47;;;9.17;100.00
19831;BME280;10076;52.008;4.708;2024-02-26T02:56:32;100029.41;;;9.31;100.00
19831;BME280;10076;52.008;4.708;2024-02-26T02:58:57;100034.41;;;9.34;100.00
19831;BME280;10076;52.008;4.708;2024-02-26T03:01:23;100032.88;;;9.20;100.00
19831;BME280;10076;52.008;4.708;2024-02-26T03:03:48;100039.59;;;9.35;100.00
19831;BME280;10076;52.008;4.708;2024-02-26T03:06:14;100035.03;;;9.37;100.00
19831;BME280;10076;52.008;4.708;2024-02-26T03:08:39;100029.41;;;9.20;100.00
19831;BME280;10076;52.008;4.708;2024-02-26T03:11:06;100034.81;;;9.29;100.00
19831;BME280;10076;52.008;4.708;2024-02-26T03:13:32;100035.50;;;9.20;100.00
19831;BME280;10076;52.008;4.708;2024-02-26T03:15:57;100052.16;;;9.21;100.00
19831;BME280;10076;52.008;4.708;2024-02-26T03:18:22;100057.28;;;9.11;100.00
19831;BME280;10076;52.008;4.708;2024-02-26T03:20:49;100054.06;;;9.19;100.00
19831;BME280;10076;52.008;4.708;2024-02-26T03:23:14;100068.31;;;9.16;100.00
19831;BME280;10076;52.008;4.708;2024-02-26T03:25:42;100072.22;;;9.11;100.00
19831;BME280;10076;52.008;4.708;2024-02-26T03:28:08;100065.66;;;9.05;100.00
19831;BME280;10076;52.008;4.708;2024-02-26T03:30:33;100064.94;;;9.25;100.00
19831;BME280;10076;52.008;4.708;2024-02-26T03:32:58;100060.75;;;9.23;100.00
19831;BME280;10076;52.008;4.708;2024-02-26T03:35:23;100062.91;;;9.07;100.00
19831;BME280;10076;52.008;4.708;2024-02-26T03:37:49;100058.59;;;9.17;100.00
19831;BME280;10076;52.008;4.708;2024-02-26T03:40:16;100062.16;;;9.05;100.00
19831;BME280;10076;52.008;4.708;2024-02-26T03:42:43;100059.69;;;9.25;100.00
19831;BME280;10076;52.008;4.708;2024-02-26T03:45:09;100066.47;;;9.06;100.00
19831;BME280;10076;52.008;4.708;2024-02-26T03:47:34;100064.72;;;9.06;100.00
19831;BME280;10076;52.008;4.708;2024-02-26T03:49:59;100075.47;;;9.03;100.00
19831;BME280;10076;52.008;4.708;2024-02-26T03:52:25;100069.25;;;9.15;100.00
19831;BME280;10076;52.008;4.708;2024-02-26T03:54:50;100074.84;;;9.00;100.00
19831;BME280;10076;52.008;4.708;2024-02-26T03:57:16;100075.75;;;9.22;100.00
19831;BME280;10076;52.008;4.708;2024-02-26T03:59:41;100066.81;;;9.01;100.00
19831;BME280;10076;52.008;4.708;2024-02-26T04:02:06;100073.41;;;8.96;100.00
19831;BME280;10076;52.008;4.708;2024-02-26T04:04:34;100072.34;;;8.98;100.00
19831;BME280;10076;52.008;4.708;2024-02-26T04:06:59;100070.19;;;9.03;100.00
19831;BME280;10076;52.008;4.708;2024-02-26T04:09:25;100075.34;;;9.16;100.00
19831;BME280;10076;52.008;4.708;2024-02-26T04:11:50;100072.34;;;9.09;100.00
19831;BME280;10076;52.008;4.708;2024-02-26T04:14:16;100071.63;;;9.07;100.00
19831;BME280;10076;52.008;4.708;2024-02-26T04:16:41;100076.31;;;9.04;100.00
19831;BME280;10076;52.008;4.708;2024-02-26T04:19:06;100085.97;;;8.93;100.00
19831;BME280;10076;52.008;4.708;2024-02-26T04:21:32;100086.59;;;9.07;100.00
19831;BME280;10076;52.008;4.708;2024-02-26T04:23:57;100082.91;;;9.20;100.00
19831;BME280;10076;52.008;4.708;2024-02-26T04:26:26;100093.41;;;8.98;100.00
19831;BME280;10076;52.008;4.708;2024-02-26T04:28:51;100091.50;;;9.00;100.00
19831;BME280;10076;52.008;4.708;2024-02-26T04:31:17;100088.09;;;8.77;100.00
19831;BME280;10076;52.008;4.708;2024-02-26T04:33:42;100091.78;;;8.74;100.00
19831;BME280;10076;52.008;4.708;2024-02-26T04:36:13;100102.50;;;8.94;100.00
19831;BME280;10076;52.008;4.708;2024-02-26T04:38:39;100094.31;;;8.87;100.00
19831;BME280;10076;52.008;4.708;2024-02-26T04:41:04;100098.97;;;8.83;100.00
19831;BME280;10076;52.008;4.708;2024-02-26T04:43:30;100094.50;;;8.73;100.00
19831;BME280;10076;52.008;4.708;2024-02-26T04:45:55;100104.41;;;8.93;100.00
19831;BME280;10076;52.008;4.708;2024-02-26T04:48:22;100105.50;;;9.12;100.00
19831;BME280;10076;52.008;4.708;2024-02-26T04:50:48;100107.50;;;8.87;100.00
19831;BME280;10076;52.008;4.708;2024-02-26T04:53:13;100103.44;;;8.93;100.00
19831;BME280;10076;52.008;4.708;2024-02-26T04:55:38;100110.94;;;8.87;100.00
19831;BME280;10076;52.008;4.708;2024-02-26T04:58:04;100115.66;;;8.94;100.00
19831;BME280;10076;52.008;4.708;2024-02-26T05:00:29;100117.41;;;8.83;100.00
19831;BME280;10076;52.008;4.708;2024-02-26T05:02:55;100118.50;;;8.92;100.00
19831;BME280;10076;52.008;4.708;2024-02-26T05:05:20;100119.72;;;8.98;100.00
19831;BME280;10076;52.008;4.708;2024-02-26T05:07:45;100111.47;;;8.92;100.00
19831;BME280;10076;52.008;4.708;2024-02-26T05:10:10;100118.81;;;8.76;100.00
19831;BME280;10076;52.008;4.708;2024-02-26T05:12:36;100123.53;;;8.84;100.00
19831;BME280;10076;52.008;4.708;2024-02-26T05:15:02;100124.06;;;8.76;100.00
19831;BME280;10076;52.008;4.708;2024-02-26T05:17:27;100126.00;;;8.74;100.00
19831;BME280;10076;52.008;4.708;2024-02-26T05:19:53;100122.25;;;8.66;100.00
19831;BME280;10076;52.008;4.708;2024-02-26T05:22:18;100125.38;;;8.71;100.00
19831;BME280;10076;52.008;4.708;2024-02-26T05:24:43;100123.13;;;8.77;100.00
19831;BME280;10076;52.008;4.708;2024-02-26T05:27:09;100130.19;;;8.77;100.00
19831;BME280;10076;52.008;4.708;2024-02-26T05:29:35;100126.53;;;8.90;100.00
19831;BME280;10076;52.008;4.708;2024-02-26T05:32:01;100142.78;;;8.84;100.00
19831;BME280;10076;52.008;4.708;2024-02-26T05:34:26;100152.53;;;8.94;100.00
19831;BME280;10076;52.008;4.708;2024-02-26T05:36:51;100152.84;;;8.90;100.00
19831;BME280;10076;52.008;4.708;2024-02-26T05:39:16;100154.59;;;8.79;100.00
19831;BME280;10076;52.008;4.708;2024-02-26T05:41:42;100158.19;;;8.78;100.00
19831;BME280;10076;52.008;4.708;2024-02-26T05:44:08;100164.66;;;8.85;100.00
19831;BME280;10076;52.008;4.708;2024-02-26T05:46:35;100164.34;;;8.66;100.00
19831;BME280;10076;52.008;4.708;2024-02-26T05:49:00;100165.34;;;8.76;100.00
19831;BME280;10076;52.008;4.708;2024-02-26T05:51:26;100160.47;;;8.82;100.00
19831;BME280;10076;52.008;4.708;2024-02-26T05:53:51;100162.94;;;8.73;100.00
19831;BME280;10076;52.008;4.708;2024-02-26T05:56:20;100164.44;;;8.88;100.00
19831;BME280;10076;52.008;4.708;2024-02-26T05:58:45;100170.91;;;8.84;100.00
19831;BME280;10076;52.008;4.708;2024-02-26T06:01:11;100177.28;;;8.92;100.00
19831;BME280;10076;52.008;4.708;2024-02-26T06:03:36;100188.91;;;8.77;100.00
19831;BME280;10076;52.008;4.708;2024-02-26T06:06:01;100187.41;;;8.86;100.00
19831;BME280;10076;52.008;4.708;2024-02-26T06:08:27;100189.00;;;8.65;100.00
19831;BME280;10076;52.008;4.708;2024-02-26T06:10:52;100193.31;;;8.66;100.00
19831;BME280;10076;52.008;4.708;2024-02-26T06:13:17;100176.66;;;8.65;100.00
19831;BME280;10076;52.008;4.708;2024-02-26T06:15:43;100187.59;;;8.72;100.00
19831;BME280;10076;52.008;4.708;2024-02-26T06:18:08;100182.72;;;8.55;100.00
19831;BME280;10076;52.008;4.708;2024-02-26T06:20:33;100197.31;;;8.59;100.00
19831;BME280;10076;52.008;4.708;2024-02-26T06:22:59;100198.84;;;8.74;100.00
19831;BME280;10076;52.008;4.708;2024-02-26T06:25:24;100200.13;;;8.68;100.00
19831;BME280;10076;52.008;4.708;2024-02-26T06:27:50;100208.56;;;8.61;100.00
19831;BME280;10076;52.008;4.708;2024-02-26T06:30:16;100213.38;;;8.67;100.00
19831;BME280;10076;52.008;4.708;2024-02-26T06:32:41;100215.56;;;8.73;100.00
19831;BME280;10076;52.008;4.708;2024-02-26T06:35:07;100216.53;;;8.72;100.00
19831;BME280;10076;52.008;4.708;2024-02-26T06:37:35;100228.34;;;8.66;100.00
19831;BME280;10076;52.008;4.708;2024-02-26T06:40:01;100230.28;;;8.52;100.00
19831;BME280;10076;52.008;4.708;2024-02-26T06:42:29;100239.44;;;8.59;100.00
19831;BME280;10076;52.008;4.708;2024-02-26T06:44:55;100241.06;;;8.72;100.00
19831;BME280;10076;52.008;4.708;2024-02-26T06:47:20;100234.00;;;8.73;100.00
19831;BME280;10076;52.008;4.708;2024-02-26T06:49:46;100236.19;;;8.79;100.00
19831;BME280;10076;52.008;4.708;2024-02-26T06:52:11;100248.34;;;8.69;100.00
19831;BME280;10076;52.008;4.708;2024-02-26T06:54:36;100252.66;;;8.70;100.00
19831;BME280;10076;52.008;4.708;2024-02-26T06:57:02;100251.47;;;8.74;100.00
19831;BME280;10076;52.008;4.708;2024-02-26T06:59:28;100253.47;;;8.70;100.00
19831;BME280;10076;52.008;4.708;2024-02-26T07:01:53;100269.25;;;8.83;100.00
19831;BME280;10076;52.008;4.708;2024-02-26T07:04:19;100255.91;;;8.73;100.00
19831;BME280;10076;52.008;4.708;2024-02-26T07:06:45;100270.63;;;8.76;100.00
19831;BME280;10076;52.008;4.708;2024-02-26T07:09:11;100271.63;;;8.86;100.00
19831;BME280;10076;52.008;4.708;2024-02-26T07:11:37;100283.22;;;8.83;100.00
19831;BME280;10076;52.008;4.708;2024-02-26T07:14:02;100284.53;;;8.78;100.00
19831;BME280;10076;52.008;4.708;2024-02-26T07:16:29;100288.25;;;8.63;100.00
19831;BME280;10076;52.008;4.708;2024-02-26T07:18:54;100295.25;;;8.75;100.00
19831;BME280;10076;52.008;4.708;2024-02-26T07:21:19;100287.16;;;8.78;100.00
19831;BME280;10076;52.008;4.708;2024-02-26T07:23:44;100287.72;;;8.58;100.00
19831;BME280;10076;52.008;4.708;2024-02-26T07:26:10;100294.44;;;8.62;100.00
19831;BME280;10076;52.008;4.708;2024-02-26T07:28:37;100292.69;;;8.50;100.00
19831;BME280;10076;52.008;4.708;2024-02-26T07:31:02;100289.41;;;8.59;100.00
19831;BME280;10076;52.008;4.708;2024-02-26T07:33:28;100302.53;;;8.71;100.00
19831;BME280;10076;52.008;4.708;2024-02-26T07:35:53;100317.56;;;8.82;100.00
19831;BME280;10076;52.008;4.708;2024-02-26T07:38:19;100317.25;;;8.74;100.00
19831;BME280;10076;52.008;4.708;2024-02-26T07:40:44;100320.75;;;8.74;100.00
19831;BME280;10076;52.008;4.708;2024-02-26T07:43:09;100330.53;;;8.72;100.00
19831;BME280;10076;52.008;4.708;2024-02-26T07:45:35;100321.69;;;8.73;100.00
19831;BME280;10076;52.008;4.708;2024-02-26T07:48:01;100321.81;;;8.59;100.00
19831;BME280;10076;52.008;4.708;2024-02-26T07:50:26;100330.16;;;8.66;100.00
19831;BME280;10076;52.008;4.708;2024-02-26T07:52:52;100333.69;;;8.77;100.00
19831;BME280;10076;52.008;4.708;2024-02-26T07:55:18;100332.75;;;8.78;100.00
19831;BME280;10076;52.008;4.708;2024-02-26T07:57:44;100340.31;;;8.83;100.00
19831;BME280;10076;52.008;4.708;2024-02-26T08:00:10;100343.66;;;8.85;100.00
19831;BME280;10076;52.008;4.708;2024-02-26T08:02:38;100356.22;;;8.69;100.00
19831;BME280;10076;52.008;4.708;2024-02-26T08:05:04;100349.16;;;8.82;100.00
19831;BME280;10076;52.008;4.708;2024-02-26T08:07:29;100353.06;;;8.76;100.00
19831;BME280;10076;52.008;4.708;2024-02-26T08:09:55;100364.53;;;8.75;100.00
19831;BME280;10076;52.008;4.708;2024-02-26T08:12:20;100361.06;;;8.75;100.00
19831;BME280;10076;52.008;4.708;2024-02-26T08:14:46;100363.56;;;8.89;100.00
19831;BME280;10076;52.008;4.708;2024-02-26T08:17:11;100364.13;;;8.69;100.00
19831;BME280;10076;52.008;4.708;2024-02-26T08:19:37;100369.97;;;8.85;100.00
19831;BME280;10076;52.008;4.708;2024-02-26T08:22:02;100376.38;;;8.57;100.00
19831;BME280;10076;52.008;4.708;2024-02-26T08:24:28;100380.00;;;8.80;100.00
19831;BME280;10076;52.008;4.708;2024-02-26T08:26:53;100386.00;;;8.82;100.00
19831;BME280;10076;52.008;4.708;2024-02-26T08:29:19;100390.66;;;8.78;100.00
19831;BME280;10076;52.008;4.708;2024-02-26T08:31:44;100390.75;;;8.77;100.00
19831;BME280;10076;52.008;4.708;2024-02-26T08:34:09;100390.00;;;8.75;100.00
19831;BME280;10076;52.008;4.708;2024-02-26T08:36:35;100405.38;;;8.81;100.00
19831;BME280;10076;52.008;4.708;2024-02-26T08:39:00;100401.38;;;8.88;100.00
19831;BME280;10076;52.008;4.708;2024-02-26T08:41:26;100404.84;;;8.88;100.00
19831;BME280;10076;52.008;4.708;2024-02-26T08:43:51;100410.63;;;8.93;100.00
19831;BME280;10076;52.008;4.708;2024-02-26T08:46:17;100415.38;;;8.88;100.00
19831;BME280;10076;52.008;4.708;2024-02-26T08:48:42;100411.91;;;8.88;100.00
19831;BME280;10076;52.008;4.708;2024-02-26T08:51:08;100417.91;;;8.77;100.00
19831;BME280;10076;52.008;4.708;2024-02-26T08:53:35;100411.75;;;9.01;100.00
19831;BME280;10076;52.008;4.708;2024-02-26T08:56:00;100417.75;;;9.03;100.00
19831;BME280;10076;52.008;4.708;2024-02-26T08:58:27;100423.69;;;8.82;100.00
19831;BME280;10076;52.008;4.708;2024-02-26T09:00:53;100426.41;;;9.05;100.00
19831;BME280;10076;52.008;4.708;2024-02-26T09:03:18;100425.03;;;9.12;100.00
19831;BME280;10076;52.008;4.708;2024-02-26T09:05:43;100432.09;;;8.99;100.00
19831;BME280;10076;52.008;4.708;2024-02-26T09:08:09;100440.72;;;9.14;100.00
19831;BME280;10076;52.008;4.708;2024-02-26T09:10:34;100439.25;;;8.97;100.00
19831;BME280;10076;52.008;4.708;2024-02-26T09:12:59;100444.09;;;9.03;100.00
19831;BME280;10076;52.008;4.708;2024-02-26T09:15:25;100450.03;;;8.94;100.00
19831;BME280;10076;52.008;4.708;2024-02-26T09:17:50;100455.16;;;8.96;100.00
19831;BME280;10076;52.008;4.708;2024-02-26T09:20:17;100460.53;;;8.82;100.00
19831;BME280;10076;52.008;4.708;2024-02-26T09:22:46;100467.03;;;9.01;100.00
19831;BME280;10076;52.008;4.708;2024-02-26T09:25:11;100466.81;;;9.17;100.00
19831;BME280;10076;52.008;4.708;2024-02-26T09:27:36;100468.75;;;9.15;100.00
19831;BME280;10076;52.008;4.708;2024-02-26T09:30:02;100468.63;;;9.16;100.00
19831;BME280;10076;52.008;4.708;2024-02-26T09:32:27;100476.53;;;9.16;100.00
19831;BME280;10076;52.008;4.708;2024-02-26T09:34:53;100481.38;;;9.22;100.00
19831;BME280;10076;52.008;4.708;2024-02-26T09:37:18;100484.94;;;9.21;100.00
19831;BME280;10076;52.008;4.708;2024-02-26T09:39:43;100487.03;;;9.29;100.00
19831;BME280;10076;52.008;4.708;2024-02-26T09:42:12;100491.03;;;9.34;100.00
19831;BME280;10076;52.008;4.708;2024-02-26T09:44:40;100494.09;;;9.28;100.00
19831;BME280;10076;52.008;4.708;2024-02-26T09:47:08;100506.41;;;9.40;100.00
19831;BME280;10076;52.008;4.708;2024-02-26T09:49:35;100499.22;;;9.55;100.00
19831;BME280;10076;52.008;4.708;2024-02-26T09:52:01;100509.81;;;9.65;100.00
19831;BME280;10076;52.008;4.708;2024-02-26T09:54:28;100511.53;;;9.54;100.00
19831;BME280;10076;52.008;4.708;2024-02-26T09:56:59;100507.44;;;9.50;100.00
19831;BME280;10076;52.008;4.708;2024-02-26T09:59:27;100520.31;;;9.42;100.00
19831;BME280;10076;52.008;4.708;2024-02-26T10:01:53;100526.88;;;9.37;100.00
19831;BME280;10076;52.008;4.708;2024-02-26T10:04:19;100533.69;;;9.39;100.00
19831;BME280;10076;52.008;4.708;2024-02-26T10:06:45;100528.56;;;9.38;100.00
19831;BME280;10076;52.008;4.708;2024-02-26T10:09:12;100530.66;;;9.20;100.00
19831;BME280;10076;52.008;4.708;2024-02-26T10:11:37;100534.56;;;9.02;100.00
19831;BME280;10076;52.008;4.708;2024-02-26T10:14:03;100546.16;;;9.00;100.00
19831;BME280;10076;52.008;4.708;2024-02-26T10:16:29;100541.41;;;9.05;100.00
19831;BME280;10076;52.008;4.708;2024-02-26T10:18:54;100536.69;;;8.97;100.00
19831;BME280;10076;52.008;4.708;2024-02-26T10:21:20;100540.81;;;9.14;100.00
19831;BME280;10076;52.008;4.708;2024-02-26T10:23:46;100551.63;;;9.09;100.00
19831;BME280;10076;52.008;4.708;2024-02-26T10:26:18;100557.03;;;9.08;100.00
19831;BME280;10076;52.008;4.708;2024-02-26T10:28:45;100559.34;;;9.12;100.00
19831;BME280;10076;52.008;4.708;2024-02-26T10:31:11;100560.38;;;9.10;100.00
19831;BME280;10076;52.008;4.708;2024-02-26T10:33:37;100561.97;;;9.12;100.00
19831;BME280;10076;52.008;4.708;2024-02-26T10:36:07;100563.84;;;9.23;100.00
19831;BME280;10076;52.008;4.708;2024-02-26T10:38:34;100567.75;;;9.30;100.00
19831;BME280;10076;52.008;4.708;2024-02-26T10:41:01;100581.16;;;9.27;100.00
19831;BME280;10076;52.008;4.708;2024-02-26T10:43:27;100581.03;;;9.16;100.00
19831;BME280;10076;52.008;4.708;2024-02-26T10:45:55;100580.00;;;9.18;100.00
19831;BME280;10076;52.008;4.708;2024-02-26T10:48:20;100585.66;;;9.37;100.00
19831;BME280;10076;52.008;4.708;2024-02-26T10:50:47;100586.72;;;9.47;100.00
19831;BME280;10076;52.008;4.708;2024-02-26T10:53:16;100586.91;;;9.44;100.00
19831;BME280;10076;52.008;4.708;2024-02-26T10:55:48;100597.88;;;9.63;100.00
19831;BME280;10076;52.008;4.708;2024-02-26T10:58:14;100599.31;;;9.67;100.00
19831;BME280;10076;52.008;4.708;2024-02-26T11:00:42;100604.28;;;9.59;100.00
19831;BME280;10076;52.008;4.708;2024-02-26T11:03:08;100608.22;;;9.54;100.00
19831;BME280;10076;52.008;4.708;2024-02-26T11:05:35;100619.94;;;9.50;100.00
19831;BME280;10076;52.008;4.708;2024-02-26T11:08:02;100609.47;;;9.36;100.00
19831;BME280;10076;52.008;4.708;2024-02-26T11:10:29;100614.53;;;9.39;100.00
19831;BME280;10076;52.008;4.708;2024-02-26T11:12:56;100628.56;;;9.39;100.00
19831;BME280;10076;52.008;4.708;2024-02-26T11:15:22;100629.31;;;9.41;100.00
19831;BME280;10076;52.008;4.708;2024-02-26T11:17:48;100630.25;;;9.40;100.00
19831;BME280;10076;52.008;4.708;2024-02-26T11:20:13;100631.28;;;9.25;100.00
19831;BME280;10076;52.008;4.708;2024-02-26T11:22:39;100639.19;;;9.25;100.00
19831;BME280;10076;52.008;4.708;2024-02-26T11:25:05;100634.47;;;9.43;100.00
19831;BME280;10076;52.008;4.708;2024-02-26T11:27:36;100634.25;;;9.33;100.00
19831;BME280;10076;52.008;4.708;2024-02-26T11:30:04;100643.00;;;9.34;100.00
19831;BME280;10076;52.008;4.708;2024-02-26T11:32:33;100640.25;;;9.48;100.00
19831;BME280;10076;52.008;4.708;2024-02-26T11:35:00;100649.09;;;9.47;100.00
19831;BME280;10076;52.008;4.708;2024-02-26T11:37:26;100651.97;;;9.56;100.00
19831;BME280;10076;52.008;4.708;2024-02-26T11:39:52;100649.53;;;9.28;100.00
19831;BME280;10076;52.008;4.708;2024-02-26T11:42:23;100648.06;;;9.37;100.00
19831;BME280;10076;52.008;4.708;2024-02-26T11:44:48;100658.81;;;9.46;100.00
19831;BME280;10076;52.008;4.708;2024-02-26T11:47:18;100661.53;;;9.45;100.00
19831;BME280;10076;52.008;4.708;2024-02-26T11:49:43;100665.78;;;9.60;100.00
19831;BME280;10076;52.008;4.708;2024-02-26T11:52:09;100667.03;;;9.42;100.00
19831;BME280;10076;52.008;4.708;2024-02-26T11:54:48;100675.25;;;9.62;100.00
19831;BME280;10076;52.008;4.708;2024-02-26T12:00:10;100677.03;;;9.74;100.00
19831;BME280;10076;52.008;4.708;2024-02-26T12:05:31;100671.97;;;9.71;100.00
19831;BME280;10076;52.008;4.708;2024-02-26T12:08:03;100678.94;;;9.72;100.00
19831;BME280;10076;52.008;4.708;2024-02-26T12:10:33;100684.72;;;9.77;100.00
19831;BME280;10076;52.008;4.708;2024-02-26T12:13:14;100682.63;;;9.82;100.00
19831;BME280;10076;52.008;4.708;2024-02-26T12:15:45;100682.41;;;9.85;100.00
19831;BME280;10076;52.008;4.708;2024-02-26T12:18:17;100688.63;;;10.09;100.00
19831;BME280;10076;52.008;4.708;2024-02-26T12:20:43;100687.25;;;10.16;100.00
19831;BME280;10076;52.008;4.708;2024-02-26T12:23:15;100691.66;;;10.15;100.00
19831;BME280;10076;52.008;4.708;2024-02-26T12:25:43;100699.50;;;10.17;100.00
19831;BME280;10076;52.008;4.708;2024-02-26T12:28:09;100695.47;;;10.11;100.00
19831;BME280;10076;52.008;4.708;2024-02-26T12:30:34;100707.09;;;9.96;100.00
19831;BME280;10076;52.008;4.708;2024-02-26T12:33:00;100702.66;;;10.22;100.00
19831;BME280;10076;52.008;4.708;2024-02-26T12:35:29;100705.91;;;10.13;100.00
19831;BME280;10076;52.008;4.708;2024-02-26T12:37:58;100717.19;;;10.27;100.00
19831;BME280;10076;52.008;4.708;2024-02-26T12:40:23;100720.78;;;10.26;100.00
19831;BME280;10076;52.008;4.708;2024-02-26T12:42:49;100719.00;;;10.27;100.00
19831;BME280;10076;52.008;4.708;2024-02-26T12:45:15;100726.75;;;10.40;100.00
19831;BME280;10076;52.008;4.708;2024-02-26T12:47:42;100733.00;;;10.39;100.00
19831;BME280;10076;52.008;4.708;2024-02-26T12:50:09;100729.75;;;10.36;100.00
19831;BME280;10076;52.008;4.708;2024-02-26T12:52:36;100730.72;;;10.58;100.00